createdAt,value
2022-12-22T00:04:11.946Z,64.55
2022-12-22T00:09:33.909Z,62.58
2022-12-22T00:14:56.307Z,67.70
2022-12-22T00:20:19.944Z,68.78
2022-12-22T00:25:41.789Z,70.75
2022-12-22T00:31:03.732Z,67.88
2022-12-22T00:36:25.754Z,67.47
2022-12-22T00:41:47.554Z,65.95
2022-12-22T00:47:14.708Z,69.10
2022-12-22T00:52:36.808Z,64.43
2022-12-22T00:57:59.563Z,64.90
2022-12-22T01:03:21.507Z,77.45
2022-12-22T01:08:43.557Z,69.20
2022-12-22T01:14:10.421Z,64.05
2022-12-22T01:19:32.245Z,70.65
2022-12-22T01:24:54.065Z,72.55
2022-12-22T01:30:15.962Z,72.40
2022-12-22T01:35:37.808Z,82.03
2022-12-22T01:41:01.769Z,74.15
2022-12-22T01:46:31.870Z,89.55
2022-12-22T01:51:53.993Z,101.80
2022-12-22T01:57:15.872Z,98.13
2022-12-22T02:02:38.017Z,87.18
2022-12-22T02:08:32.706Z,92.72
2022-12-22T02:14:12.889Z,97.22
2022-12-22T02:19:53.330Z,109.50
2022-12-22T02:25:28.007Z,100.88
2022-12-22T02:30:51.698Z,123.88
2022-12-22T02:36:26.388Z,93.13
2022-12-22T02:42:06.777Z,98.57
2022-12-22T02:47:50.670Z,90.70
2022-12-22T02:53:14.768Z,96.30
2022-12-22T02:58:37.235Z,110.22
2022-12-22T03:03:59.150Z,88.88
2022-12-22T03:09:21.044Z,87.00
2022-12-22T03:14:42.923Z,110.22
2022-12-22T03:20:05.489Z,78.38
2022-12-22T03:25:27.383Z,66.47
2022-12-22T03:30:58.315Z,68.07
2022-12-22T03:36:20.207Z,67.00
2022-12-22T03:41:42.054Z,62.65
2022-12-22T03:47:04.151Z,61.95
2022-12-22T03:52:26.057Z,56.28
2022-12-22T03:57:47.891Z,57.53
2022-12-22T04:03:09.998Z,59.65
2022-12-22T04:08:31.989Z,50.47
2022-12-22T04:13:53.855Z,52.17
2022-12-22T04:19:15.840Z,50.70
2022-12-22T04:24:37.678Z,58.20
2022-12-22T04:29:59.588Z,51.72
2022-12-22T04:35:21.476Z,50.88
2022-12-22T04:40:43.403Z,49.63
2022-12-22T04:46:06.136Z,50.65
2022-12-22T04:51:28.537Z,52.28
2022-12-22T04:56:50.763Z,50.75
2022-12-22T05:02:12.751Z,53.45
2022-12-22T05:07:34.756Z,50.03
2022-12-22T05:12:57.170Z,49.05
2022-12-22T05:18:19.056Z,48.88
2022-12-22T05:23:41.884Z,52.80
2022-12-22T05:29:03.735Z,54.92
2022-12-22T05:34:25.676Z,49.10
2022-12-22T05:39:47.583Z,48.85
2022-12-22T05:45:15.264Z,53.88
2022-12-22T05:50:37.441Z,50.00
2022-12-22T05:55:59.271Z,46.65
2022-12-22T06:01:21.111Z,49.08
2022-12-22T06:06:42.923Z,52.20
2022-12-22T06:12:05.149Z,52.22
2022-12-22T06:17:27.046Z,48.35
2022-12-22T06:22:48.891Z,47.50
2022-12-22T06:28:10.810Z,47.55
2022-12-22T06:33:33.933Z,46.90
2022-12-22T06:38:55.757Z,42.80
2022-12-22T06:44:17.638Z,46.83
2022-12-22T06:49:39.586Z,48.13
2022-12-22T06:55:01.435Z,46.78
2022-12-22T07:00:23.429Z,42.42
2022-12-22T07:05:45.279Z,38.60
2022-12-22T07:11:07.118Z,40.28
2022-12-22T07:16:29.053Z,37.47
2022-12-22T07:21:51.041Z,38.65
2022-12-22T07:27:12.921Z,44.80
2022-12-22T07:32:34.756Z,38.25
2022-12-22T07:37:56.730Z,39.08
2022-12-22T07:43:18.569Z,37.75
2022-12-22T07:48:40.424Z,45.42
2022-12-22T07:54:05.391Z,36.78
2022-12-22T07:59:27.349Z,37.92
2022-12-22T08:04:49.270Z,39.17
2022-12-22T08:10:12.283Z,35.92
2022-12-22T08:15:34.135Z,111.10
2022-12-22T08:20:55.958Z,34.97
2022-12-22T08:26:20.547Z,36.00
2022-12-22T08:31:42.871Z,36.33
2022-12-22T08:37:09.532Z,50.00
2022-12-22T08:42:33.293Z,34.15
2022-12-22T08:47:55.120Z,38.13
2022-12-22T08:53:37.582Z,31.98
2022-12-22T08:58:58.780Z,35.42
2022-12-22T09:04:22.368Z,34.20
2022-12-22T09:09:44.523Z,32.80
2022-12-22T09:15:07.201Z,31.70
2022-12-22T09:20:29.103Z,30.08
2022-12-22T09:25:53.848Z,34.22
2022-12-22T09:31:15.797Z,33.28
2022-12-22T09:36:41.458Z,30.73
2022-12-22T09:42:03.421Z,30.43
2022-12-22T09:47:38.329Z,29.50
2022-12-22T09:53:02.561Z,30.90
2022-12-22T09:58:30.519Z,32.47
2022-12-22T10:04:02.869Z,35.22
2022-12-22T10:09:50.183Z,34.97
2022-12-22T10:15:18.345Z,31.15
2022-12-22T10:20:45.093Z,31.50
2022-12-22T10:26:30.781Z,32.50
2022-12-22T10:32:17.307Z,35.95
2022-12-22T10:37:40.719Z,35.65
2022-12-22T10:43:04.313Z,36.05
2022-12-22T10:48:32.393Z,40.25
2022-12-22T10:53:56.505Z,32.80
2022-12-22T10:59:21.444Z,39.63
2022-12-22T11:04:43.288Z,35.78
2022-12-22T11:10:41.382Z,38.63
2022-12-22T11:16:14.991Z,39.05
2022-12-22T11:22:07.857Z,42.63
2022-12-22T11:28:07.331Z,35.95
2022-12-22T11:33:51.372Z,40.63
2022-12-22T11:39:17.678Z,40.13
2022-12-22T11:45:04.220Z,36.45
2022-12-22T11:50:59.524Z,38.20
2022-12-22T11:56:25.235Z,39.00
2022-12-22T12:02:02.382Z,45.15
2022-12-22T12:07:49.256Z,41.13
2022-12-22T12:13:27.384Z,40.42
2022-12-22T12:19:26.331Z,41.60
2022-12-22T12:25:28.074Z,38.63
2022-12-22T12:31:00.454Z,38.92
2022-12-22T12:36:25.176Z,40.28
2022-12-22T12:41:46.995Z,42.40
2022-12-22T12:47:20.998Z,40.47
2022-12-22T12:52:42.844Z,43.70
2022-12-22T12:58:09.240Z,36.97
2022-12-22T13:04:02.007Z,37.35
2022-12-22T13:09:49.030Z,41.90
2022-12-22T13:15:04.794Z,31.77
2022-12-22T13:20:35.159Z,28.85
2022-12-22T13:26:00.204Z,28.73
2022-12-22T13:31:24.804Z,29.30
2022-12-22T13:36:48.656Z,29.30
2022-12-22T13:42:13.146Z,29.00
2022-12-22T13:47:35.156Z,28.60
2022-12-22T13:52:58.144Z,30.77
2022-12-22T13:58:35.926Z,33.47
2022-12-22T14:04:04.537Z,31.42
2022-12-22T14:09:28.083Z,33.97
2022-12-22T14:14:52.749Z,29.75
2022-12-22T14:20:23.422Z,31.98
2022-12-22T14:25:47.585Z,33.25
2022-12-22T14:31:12.599Z,37.67
2022-12-22T14:36:40.691Z,34.85
2022-12-22T14:42:23.463Z,36.95
2022-12-22T14:47:45.393Z,30.58
2022-12-22T14:53:07.283Z,39.55
2022-12-22T14:58:32.873Z,34.67
2022-12-22T15:04:00.479Z,30.97
2022-12-22T15:10:03.751Z,36.47
2022-12-22T15:15:19.810Z,36.33
2022-12-22T15:20:41.785Z,36.47
2022-12-22T15:26:03.606Z,37.67
2022-12-22T15:31:25.566Z,39.40
2022-12-22T15:36:47.485Z,39.35
2022-12-22T15:42:09.335Z,39.10
2022-12-22T15:47:31.189Z,46.22
2022-12-22T15:52:56.328Z,42.05
2022-12-22T15:58:26.926Z,46.65
2022-12-22T16:03:48.835Z,47.55
2022-12-22T16:09:20.077Z,46.72
2022-12-22T16:14:49.957Z,45.78
2022-12-22T16:20:12.518Z,46.10
2022-12-22T16:25:37.310Z,48.90
2022-12-22T16:31:00.621Z,47.75
2022-12-22T16:36:22.550Z,44.58
2022-12-22T16:41:44.633Z,50.55
2022-12-22T16:47:06.516Z,46.58
2022-12-22T16:52:40.130Z,43.47
2022-12-22T16:58:05.572Z,47.47
2022-12-22T17:03:34.768Z,43.72
2022-12-22T17:08:57.920Z,47.80
2022-12-22T17:14:25.438Z,45.38
2022-12-22T17:19:47.483Z,41.85
2022-12-22T17:25:17.646Z,47.20
2022-12-22T17:30:39.623Z,45.08
2022-12-22T17:36:01.896Z,47.65
2022-12-22T17:41:23.778Z,52.25
2022-12-22T17:46:46.145Z,47.72
2022-12-22T17:52:22.904Z,49.63
2022-12-22T17:57:44.911Z,51.50
2022-12-22T18:03:08.796Z,47.05
2022-12-22T18:08:30.858Z,47.05
2022-12-22T18:13:53.983Z,46.28
2022-12-22T18:19:15.875Z,49.03
2022-12-22T18:24:37.831Z,51.15
2022-12-22T18:29:59.838Z,50.00
2022-12-22T18:35:26.627Z,46.50
2022-12-22T18:40:48.466Z,45.13
2022-12-22T18:46:11.005Z,43.78
2022-12-22T18:51:34.050Z,47.83
2022-12-22T18:56:56.327Z,45.65
2022-12-22T19:02:28.663Z,45.13
2022-12-22T19:07:51.908Z,44.50
2022-12-22T19:13:50.272Z,42.38
2022-12-22T19:19:21.308Z,48.08
2022-12-22T19:24:44.168Z,41.63
2022-12-22T19:30:06.754Z,44.17
2022-12-22T19:35:31.047Z,44.20
2022-12-22T19:40:55.505Z,41.17
2022-12-22T19:46:17.572Z,39.45
2022-12-22T19:51:39.470Z,43.05
2022-12-22T19:57:01.480Z,37.28
2022-12-22T20:02:32.326Z,38.53
2022-12-22T20:07:58.835Z,47.17
2022-12-22T20:13:21.612Z,36.65
2022-12-22T20:18:44.617Z,36.03
2022-12-22T20:24:07.637Z,38.80
2022-12-22T20:29:29.475Z,34.05
2022-12-22T20:34:51.328Z,33.65
2022-12-22T20:40:23.630Z,37.47
2022-12-22T20:45:47.397Z,31.65
2022-12-22T20:51:18.674Z,32.30
2022-12-22T20:56:40.996Z,31.90
2022-12-22T21:02:03.259Z,36.20
2022-12-22T21:07:25.244Z,33.63
2022-12-22T21:12:47.278Z,31.10
2022-12-22T21:18:20.859Z,32.83
2022-12-22T21:23:42.753Z,31.25
2022-12-22T21:29:08.362Z,32.67
2022-12-22T21:34:30.174Z,27.97
2022-12-22T21:39:52.021Z,30.42
2022-12-22T21:45:16.299Z,31.33
2022-12-22T21:50:38.607Z,38.63
2022-12-22T21:56:00.435Z,44.30
2022-12-22T22:01:22.303Z,31.02
2022-12-22T22:06:44.342Z,29.77
2022-12-22T22:12:06.463Z,25.77
2022-12-22T22:17:28.271Z,30.15
2022-12-22T22:22:51.151Z,27.35
2022-12-22T22:28:12.996Z,28.35
2022-12-22T22:33:34.824Z,32.63
2022-12-22T22:38:56.815Z,28.58
2022-12-22T22:44:18.870Z,25.60
2022-12-22T22:49:40.731Z,27.83
2022-12-22T22:55:02.932Z,29.60
2022-12-22T23:00:24.945Z,33.13
2022-12-22T23:05:46.771Z,26.88
2022-12-22T23:11:13.776Z,27.42
2022-12-22T23:16:38.710Z,26.75
2022-12-22T23:22:01.156Z,26.48
2022-12-22T23:27:23.043Z,26.27
2022-12-22T23:32:44.990Z,28.38
2022-12-22T23:38:07.369Z,24.02
2022-12-22T23:43:29.367Z,27.30
2022-12-22T23:48:56.748Z,26.55
2022-12-22T23:54:18.615Z,23.45
2022-12-22T23:59:40.467Z,23.25
